Time;durP1;ratioP1;P1;durP2;ratioP2;P2;SDS_P1;SDS_P2;PMS_P1;PMS_P2;Temp;Humidity;BMP_temperature;BMP_pressure;BME280_temperature;BME280_humidity;BME280_pressure;Samples;Min_cycle;Max_cycle;Signal;HPM_P1;HPM_P2
2022/10/01 00:01:32;;;;;;;29.83;22.60;;;12.90;99.90;;;;;;5064185;28;20248;-87
2022/10/01 00:04:21;;;;;;;28.80;23.13;;;12.90;99.90;;;;;;5074116;28;20233;-86
2022/10/01 00:07:13;;;;;;;33.22;23.60;;;13.00;99.90;;;;;;5059145;28;20227;-85
2022/10/01 00:10:03;;;;;;;29.23;22.67;;;13.00;99.90;;;;;;5076231;28;20643;-85
2022/10/01 00:12:51;;;;;;;30.23;23.73;;;13.00;99.90;;;;;;5059165;28;20213;-85
2022/10/01 00:15:41;;;;;;;29.83;22.05;;;13.10;99.90;;;;;;5068846;28;20224;-85
2022/10/01 00:18:29;;;;;;;30.98;22.85;;;13.00;99.90;;;;;;5073797;28;20217;-85
2022/10/01 00:21:21;;;;;;;29.55;22.48;;;13.00;99.90;;;;;;5071774;28;20227;-84
2022/10/01 00:24:13;;;;;;;31.23;23.02;;;13.00;99.90;;;;;;5059808;28;20225;-84
2022/10/01 00:27:01;;;;;;;29.70;22.20;;;13.00;99.90;;;;;;5066296;28;20220;-85
2022/10/01 00:29:50;;;;;;;29.52;21.90;;;13.00;99.90;;;;;;5063268;28;20235;-88
2022/10/01 00:32:40;;;;;;;34.17;22.88;;;12.90;99.90;;;;;;5073374;28;20227;-86
2022/10/01 00:35:29;;;;;;;31.35;23.10;;;13.00;99.90;;;;;;5061237;28;20299;-86
2022/10/01 00:38:18;;;;;;;31.00;23.65;;;13.00;99.90;;;;;;5055052;28;20305;-89
2022/10/01 00:41:09;;;;;;;31.88;22.80;;;13.00;99.90;;;;;;5074976;28;20339;-84
2022/10/01 00:44:00;;;;;;;30.88;23.40;;;13.00;99.90;;;;;;5070359;28;20216;-84
2022/10/01 00:46:49;;;;;;;30.88;23.65;;;12.90;99.90;;;;;;5060795;28;20231;-85
2022/10/01 00:49:39;;;;;;;32.92;24.02;;;12.90;99.90;;;;;;5062593;28;20354;-83
2022/10/01 00:52:32;;;;;;;33.47;23.90;;;13.00;99.90;;;;;;5064727;28;20220;-85
2022/10/01 00:55:26;;;;;;;31.42;23.88;;;13.00;99.90;;;;;;5072498;28;20230;-85
2022/10/01 00:58:17;;;;;;;34.92;23.48;;;13.00;99.90;;;;;;5064291;28;20220;-85
2022/10/01 01:01:06;;;;;;;30.58;23.90;;;13.00;99.90;;;;;;5062919;28;20225;-85
2022/10/01 01:03:56;;;;;;;31.98;24.30;;;13.00;99.90;;;;;;5062675;28;20588;-83
2022/10/01 01:06:48;;;;;;;32.35;24.05;;;13.00;99.90;;;;;;5057951;28;20220;-83
2022/10/01 01:09:40;;;;;;;30.40;23.60;;;13.00;99.90;;;;;;5059673;28;20486;-83
2022/10/01 01:12:44;;;;;;;31.35;24.40;;;12.90;99.90;;;;;;5068529;28;20635;-83
2022/10/01 01:15:39;;;;;;;30.33;24.02;;;12.90;99.90;;;;;;5053381;28;20224;-84
2022/10/01 01:18:34;;;;;;;33.90;24.55;;;12.90;99.90;;;;;;5059990;28;20340;-83
2022/10/01 01:21:29;;;;;;;31.00;23.52;;;12.90;99.90;;;;;;5069030;28;20250;-81
2022/10/01 01:24:39;;;;;;;33.65;24.17;;;12.90;99.90;;;;;;5054029;28;20338;-84
2022/10/01 01:27:38;;;;;;;31.38;23.95;;;13.00;99.90;;;;;;5057315;28;20232;-84
2022/10/01 01:30:29;;;;;;;31.05;23.70;;;13.00;99.90;;;;;;5057853;28;20232;-84
2022/10/01 01:33:21;;;;;;;32.78;24.08;;;13.00;99.90;;;;;;5057164;28;20926;-85
2022/10/01 01:36:15;;;;;;;34.00;24.95;;;13.00;99.90;;;;;;5055244;28;20232;-87
2022/10/01 01:39:08;;;;;;;32.60;24.95;;;12.90;99.90;;;;;;5060186;28;20220;-87
2022/10/01 01:41:59;;;;;;;33.13;25.10;;;12.90;99.90;;;;;;5067102;28;20249;-87
2022/10/01 01:44:52;;;;;;;37.15;26.27;;;12.90;99.90;;;;;;5061883;28;20216;-86
2022/10/01 01:47:43;;;;;;;37.47;26.92;;;12.90;99.90;;;;;;5057422;28;20994;-86
2022/10/01 01:50:37;;;;;;;40.60;27.42;;;12.90;99.90;;;;;;5058450;28;20231;-85
2022/10/01 01:53:26;;;;;;;38.20;30.20;;;12.90;99.90;;;;;;5062916;28;20317;-86
2022/10/01 01:56:16;;;;;;;41.72;32.20;;;12.90;99.90;;;;;;5060898;28;20645;-85
2022/10/01 01:59:05;;;;;;;47.40;36.40;;;12.80;99.90;;;;;;5056319;28;20228;-85
2022/10/01 02:01:54;;;;;;;53.00;38.78;;;12.80;99.90;;;;;;5059174;28;20315;-86
2022/10/01 02:04:48;;;;;;;56.50;41.17;;;12.90;99.90;;;;;;5068781;28;20232;-86
2022/10/01 02:08:04;;;;;;;52.40;40.20;;;12.80;99.90;;;;;;5057148;28;20228;-86
2022/10/01 02:11:27;;;;;;;49.28;37.10;;;12.80;99.90;;;;;;5058218;28;20223;-86
2022/10/01 02:14:23;;;;;;;47.20;36.47;;;12.80;99.90;;;;;;5056609;28;20220;-82
2022/10/01 02:17:16;;;;;;;53.13;38.67;;;12.80;99.90;;;;;;5058744;28;20216;-83
2022/10/01 02:20:14;;;;;;;46.97;35.65;;;12.80;99.90;;;;;;5056965;28;20219;-82
2022/10/01 02:23:08;;;;;;;49.22;36.97;;;12.80;99.90;;;;;;5067432;28;20285;-84
2022/10/01 02:26:01;;;;;;;47.03;34.95;;;12.80;99.90;;;;;;5069126;28;20223;-83
2022/10/01 02:28:53;;;;;;;53.70;36.83;;;12.80;99.90;;;;;;5067718;28;20730;-84
2022/10/01 02:31:41;;;;;;;50.92;37.13;;;12.70;99.90;;;;;;5055779;28;20228;-85
2022/10/01 02:34:31;;;;;;;45.67;35.38;;;12.80;99.90;;;;;;5060489;28;20231;-85
2022/10/01 02:37:24;;;;;;;48.63;36.63;;;12.70;99.90;;;;;;5067204;28;21664;-85
2022/10/01 02:40:16;;;;;;;47.75;35.40;;;12.60;99.90;;;;;;5056653;28;20224;-85
2022/10/01 02:43:07;;;;;;;46.58;34.05;;;12.70;99.90;;;;;;5061342;28;20216;-85
2022/10/01 02:46:02;;;;;;;46.03;35.95;;;12.70;99.90;;;;;;5072958;28;20208;-88
2022/10/01 02:48:52;;;;;;;44.60;33.90;;;12.70;99.90;;;;;;5070863;28;20233;-87
2022/10/01 02:51:49;;;;;;;47.45;32.80;;;12.60;99.90;;;;;;5067072;28;20920;-85
2022/10/01 02:54:45;;;;;;;47.90;33.78;;;12.60;99.90;;;;;;5055025;28;20327;-85
2022/10/01 02:57:34;;;;;;;43.42;33.70;;;12.60;99.90;;;;;;5056134;28;20232;-85
2022/10/01 03:00:25;;;;;;;45.00;34.55;;;12.60;99.90;;;;;;5056218;28;20232;-86
2022/10/01 03:03:14;;;;;;;44.25;33.72;;;12.60;99.90;;;;;;5055799;28;20224;-85
2022/10/01 03:06:02;;;;;;;46.45;34.55;;;12.60;99.90;;;;;;5055390;28;20337;-86
2022/10/01 03:08:51;;;;;;;46.10;34.65;;;12.80;99.90;;;;;;5064712;28;20683;-86
2022/10/01 03:11:42;;;;;;;48.75;33.95;;;12.60;99.90;;;;;;5064169;28;20225;-85
2022/10/01 03:14:31;;;;;;;45.35;34.42;;;12.50;99.90;;;;;;5063632;28;20235;-85
2022/10/01 03:17:20;;;;;;;44.25;33.90;;;12.50;99.90;;;;;;5077303;28;20791;-84
2022/10/01 03:20:10;;;;;;;45.08;34.50;;;12.60;99.90;;;;;;5064296;28;20220;-86
2022/10/01 03:22:58;;;;;;;45.85;33.47;;;12.60;99.90;;;;;;5065974;28;20224;-84
2022/10/01 03:25:47;;;;;;;47.47;33.78;;;12.60;99.90;;;;;;5070315;28;20810;-85
2022/10/01 03:28:37;;;;;;;46.10;35.05;;;12.60;99.90;;;;;;5063654;28;20222;-84
2022/10/01 03:31:26;;;;;;;44.97;34.22;;;12.50;99.90;;;;;;5062221;28;20320;-84
2022/10/01 03:34:14;;;;;;;45.67;34.92;;;12.50;99.90;;;;;;5074871;28;20219;-86
2022/10/01 03:37:03;;;;;;;43.78;33.20;;;12.60;99.90;;;;;;5060736;28;20236;-85
2022/10/01 03:39:53;;;;;;;46.05;33.85;;;12.50;99.90;;;;;;5074517;28;20227;-85
2022/10/01 03:42:41;;;;;;;44.92;33.53;;;12.50;99.90;;;;;;5062383;28;20240;-85
2022/10/01 03:45:31;;;;;;;43.63;33.72;;;12.50;99.90;;;;;;5062753;28;20225;-84
2022/10/01 03:48:20;;;;;;;47.08;33.88;;;12.50;99.90;;;;;;5066788;28;20284;-86
2022/10/01 03:51:09;;;;;;;44.28;33.30;;;12.50;99.90;;;;;;5059662;28;20275;-85
2022/10/01 03:53:58;;;;;;;44.70;32.63;;;12.40;99.90;;;;;;5060754;28;20220;-85
2022/10/01 03:56:47;;;;;;;41.55;32.35;;;12.30;99.90;;;;;;5063130;28;20802;-85
2022/10/01 03:59:36;;;;;;;44.97;32.30;;;12.40;99.90;;;;;;5075091;28;20216;-84
2022/10/01 04:02:26;;;;;;;40.65;31.60;;;12.30;99.90;;;;;;5065580;28;20220;-87
2022/10/01 04:05:15;;;;;;;43.22;33.42;;;12.30;99.90;;;;;;5081345;28;20219;-86
2022/10/01 04:08:04;;;;;;;40.60;31.10;;;12.20;99.90;;;;;;5066000;28;20270;-88
2022/10/01 04:10:53;;;;;;;41.70;33.03;;;12.20;99.90;;;;;;5064592;28;20308;-84
2022/10/01 04:13:41;;;;;;;41.72;31.05;;;12.30;99.90;;;;;;5064007;28;20228;-85
2022/10/01 04:16:33;;;;;;;41.33;30.80;;;12.30;99.90;;;;;;5062937;28;20850;-84
2022/10/01 04:19:23;;;;;;;42.88;30.80;;;12.20;99.90;;;;;;5050090;28;20364;-83
2022/10/01 04:22:12;;;;;;;40.20;30.58;;;12.20;99.90;;;;;;5058951;28;20228;-84
2022/10/01 04:25:01;;;;;;;41.03;30.85;;;12.20;99.90;;;;;;5071067;28;20600;-83
2022/10/01 04:28:02;;;;;;;41.90;30.55;;;12.20;99.90;;;;;;5060160;28;20964;-84
2022/10/01 04:31:23;;;;;;;40.50;29.63;;;12.10;99.90;;;;;;5055956;28;20235;-82
2022/10/01 04:34:03;;;;;;;47.92;31.80;;;12.10;99.90;;;;;;5056224;28;20212;-82
2022/10/01 04:36:52;;;;;;;39.08;29.95;;;12.00;99.90;;;;;;5053720;28;20398;-82
2022/10/01 04:39:41;;;;;;;42.17;30.80;;;12.00;99.90;;;;;;5058847;28;20494;-81
2022/10/01 04:42:29;;;;;;;40.22;31.15;;;12.00;99.90;;;;;;5059726;28;20304;-81
2022/10/01 04:45:18;;;;;;;42.65;30.65;;;12.00;99.90;;;;;;5058408;28;20251;-83
2022/10/01 04:48:07;;;;;;;39.95;29.73;;;12.00;99.90;;;;;;5056399;28;20239;-82
2022/10/01 04:50:55;;;;;;;37.67;29.42;;;12.00;99.90;;;;;;5074130;28;20228;-88
2022/10/01 04:53:45;;;;;;;44.00;31.90;;;12.00;99.90;;;;;;5069081;28;20334;-88
2022/10/01 04:56:34;;;;;;;39.00;30.58;;;11.90;99.90;;;;;;5063307;28;20237;-89
2022/10/01 04:59:23;;;;;;;42.80;30.88;;;12.00;99.90;;;;;;5070903;28;20232;-87
2022/10/01 05:02:12;;;;;;;42.53;30.38;;;11.90;99.90;;;;;;5072756;28;20610;-85
2022/10/01 05:05:02;;;;;;;42.17;30.38;;;11.90;99.90;;;;;;5057639;28;20231;-85
2022/10/01 05:07:54;;;;;;;42.45;31.13;;;11.90;99.90;;;;;;5069601;28;20242;-86
2022/10/01 05:10:44;;;;;;;41.95;31.90;;;11.80;99.90;;;;;;5060384;28;20259;-86
2022/10/01 05:13:33;;;;;;;43.67;31.92;;;11.90;99.90;;;;;;5060591;28;20220;-85
2022/10/01 05:16:22;;;;;;;43.50;31.27;;;11.90;99.90;;;;;;5062860;28;20243;-85
2022/10/01 05:19:14;;;;;;;44.85;32.40;;;11.90;99.90;;;;;;5062706;28;20595;-87
2022/10/01 05:22:03;;;;;;;43.75;31.77;;;11.80;99.90;;;;;;5071265;28;20219;-86
2022/10/01 05:24:51;;;;;;;41.88;31.02;;;11.80;99.90;;;;;;5059603;28;20232;-86
2022/10/01 05:27:42;;;;;;;45.63;32.90;;;11.80;99.90;;;;;;5062169;28;20302;-85
2022/10/01 05:30:31;;;;;;;44.35;31.35;;;11.80;99.90;;;;;;5069406;28;20224;-86
2022/10/01 05:33:19;;;;;;;43.58;32.25;;;11.80;99.90;;;;;;5057785;28;20228;-85
2022/10/01 05:36:08;;;;;;;44.15;32.15;;;11.80;99.90;;;;;;5072247;28;20235;-86
2022/10/01 05:38:57;;;;;;;44.22;32.22;;;11.80;99.90;;;;;;5062284;28;20247;-85
2022/10/01 05:41:45;;;;;;;42.72;32.10;;;11.80;99.90;;;;;;5056812;28;20224;-84
2022/10/01 05:44:39;;;;;;;46.50;33.67;;;11.80;99.90;;;;;;5061592;28;20232;-84
2022/10/01 05:47:28;;;;;;;45.15;34.25;;;11.90;99.90;;;;;;5056332;28;20215;-85
2022/10/01 05:50:17;;;;;;;47.55;33.13;;;11.90;99.90;;;;;;5064859;28;20223;-83
2022/10/01 05:53:06;;;;;;;48.50;34.17;;;11.90;99.90;;;;;;5069009;28;20254;-84
2022/10/01 05:55:57;;;;;;;43.35;33.10;;;11.90;99.90;;;;;;5054491;28;20229;-85
2022/10/01 05:58:46;;;;;;;49.10;34.47;;;12.00;99.90;;;;;;5058837;28;20220;-82
2022/10/01 06:01:37;;;;;;;53.03;36.47;;;12.40;99.90;;;;;;5063630;28;20239;-82
2022/10/01 06:04:25;;;;;;;49.90;37.08;;;12.20;99.90;;;;;;5057412;28;20710;-82
2022/10/01 06:07:14;;;;;;;48.42;36.65;;;12.20;99.90;;;;;;5065902;28;20307;-82
2022/10/01 06:10:03;;;;;;;50.13;37.20;;;12.30;99.90;;;;;;5060208;28;20256;-81
2022/10/01 06:12:52;;;;;;;48.88;37.85;;;12.40;99.90;;;;;;5059654;28;20301;-81
2022/10/01 06:15:40;;;;;;;48.95;38.15;;;12.40;99.90;;;;;;5059961;28;20229;-82
2022/10/01 06:18:30;;;;;;;51.58;39.55;;;12.50;99.90;;;;;;5057917;28;20704;-80
2022/10/01 06:21:19;;;;;;;52.55;38.47;;;12.50;99.90;;;;;;5058221;28;20257;-80
2022/10/01 06:24:08;;;;;;;59.72;38.97;;;12.50;99.90;;;;;;5063494;28;20718;-83
2022/10/01 06:26:56;;;;;;;50.72;38.10;;;12.50;99.90;;;;;;5057162;28;20239;-86
2022/10/01 06:29:45;;;;;;;53.45;39.30;;;12.50;99.90;;;;;;5058695;28;20310;-83
2022/10/01 06:32:34;;;;;;;51.75;38.75;;;12.50;99.90;;;;;;5058122;28;20230;-87
2022/10/01 06:35:24;;;;;;;50.33;37.78;;;12.60;99.90;;;;;;5059647;28;21057;-85
2022/10/01 06:38:13;;;;;;;49.47;38.03;;;12.70;99.90;;;;;;5056512;28;20699;-84
2022/10/01 06:41:03;;;;;;;53.85;38.20;;;12.70;99.90;;;;;;5066365;28;20227;-86
2022/10/01 06:43:52;;;;;;;54.22;38.63;;;12.80;99.90;;;;;;5062080;28;20461;-85
2022/10/01 06:46:41;;;;;;;49.25;37.83;;;12.90;99.90;;;;;;5053359;28;20299;-86
2022/10/01 06:49:30;;;;;;;52.63;37.95;;;13.00;99.90;;;;;;5072694;28;20231;-84
2022/10/01 06:55:30;;;;;;;46.53;34.65;;;13.00;99.90;;;;;;5057119;28;20216;-82
2022/10/01 06:58:20;;;;;;;46.28;34.58;;;13.10;99.90;;;;;;5056190;28;20220;-84
2022/10/01 07:01:09;;;;;;;39.58;30.67;;;13.10;99.90;;;;;;5059383;28;20219;-87
2022/10/01 07:03:58;;;;;;;40.67;32.60;;;13.30;99.90;;;;;;5058062;28;20228;-81
2022/10/01 07:06:47;;;;;;;46.45;36.20;;;13.30;99.90;;;;;;5056316;28;20236;-84
2022/10/01 07:09:37;;;;;;;46.83;36.20;;;13.30;99.90;;;;;;5056308;28;20235;-87
2022/10/01 07:12:26;;;;;;;57.65;40.08;;;13.30;99.90;;;;;;5046762;28;20223;-87
2022/10/01 07:15:16;;;;;;;53.60;39.17;;;13.20;99.90;;;;;;5051113;28;20224;-87
2022/10/01 07:18:08;;;;;;;49.75;38.30;;;13.20;99.90;;;;;;5050075;28;20270;-89
2022/10/01 07:20:57;;;;;;;45.40;36.55;;;13.20;99.90;;;;;;5058131;28;20262;-82
2022/10/01 07:23:45;;;;;;;51.28;37.80;;;13.30;99.90;;;;;;5058598;28;20235;-85
2022/10/01 07:26:35;;;;;;;47.40;35.50;;;13.30;99.90;;;;;;5058131;28;20231;-88
2022/10/01 07:29:24;;;;;;;44.75;34.58;;;13.40;99.90;;;;;;5072341;28;20678;-86
2022/10/01 07:32:14;;;;;;;47.53;32.80;;;13.40;99.90;;;;;;5064289;28;20272;-90
2022/10/01 07:35:04;;;;;;;43.55;31.67;;;13.50;99.90;;;;;;5058320;28;20227;-86
2022/10/01 07:37:54;;;;;;;38.42;29.90;;;13.50;99.90;;;;;;5076769;28;20228;-90
2022/10/01 07:40:42;;;;;;;40.47;30.75;;;13.40;99.90;;;;;;5071417;28;20308;-89
2022/10/01 07:43:35;;;;;;;34.55;27.63;;;13.50;99.90;;;;;;5056945;28;20224;-89
2022/10/01 07:46:23;;;;;;;32.58;26.08;;;13.50;99.90;;;;;;5059575;28;20324;-88
2022/10/01 07:49:12;;;;;;;35.75;27.05;;;13.60;99.90;;;;;;5069540;28;20903;-88
2022/10/01 07:52:02;;;;;;;37.80;28.13;;;13.50;99.90;;;;;;5054576;28;20320;-85
2022/10/01 07:54:50;;;;;;;36.33;28.92;;;13.60;99.90;;;;;;5057947;28;20232;-85
2022/10/01 07:57:40;;;;;;;35.30;29.30;;;13.90;99.90;;;;;;5065723;28;20219;-87
2022/10/01 08:00:32;;;;;;;40.35;30.17;;;14.00;99.90;;;;;;5062250;28;20224;-86
2022/10/01 08:03:21;;;;;;;40.22;29.77;;;14.10;99.90;;;;;;5063114;28;20579;-85
2022/10/01 08:06:12;;;;;;;38.28;29.77;;;14.00;99.90;;;;;;5073502;28;20702;-85
2022/10/01 08:09:00;;;;;;;35.33;27.67;;;14.50;99.90;;;;;;5064393;28;20224;-88
2022/10/01 08:11:49;;;;;;;34.35;27.75;;;14.60;99.90;;;;;;5060669;28;20232;-87
2022/10/01 08:14:37;;;;;;;34.65;26.60;;;14.50;99.90;;;;;;5053368;28;20244;-85
2022/10/01 08:17:28;;;;;;;35.40;26.08;;;14.50;99.90;;;;;;5061358;28;20315;-88
2022/10/01 08:20:17;;;;;;;28.17;23.35;;;14.70;99.90;;;;;;5068549;28;20310;-85
2022/10/01 08:23:08;;;;;;;28.10;23.77;;;15.10;99.90;;;;;;5059394;28;20223;-85
2022/10/01 08:25:59;;;;;;;26.40;22.10;;;15.70;99.90;;;;;;5052648;28;20232;-85
2022/10/01 08:28:48;;;;;;;24.05;19.63;;;16.50;99.90;;;;;;5068774;28;20789;-88
2022/10/01 08:31:37;;;;;;;25.65;19.20;;;16.90;99.90;;;;;;5061750;28;20230;-85
2022/10/01 08:34:27;;;;;;;23.00;19.85;;;16.90;99.90;;;;;;5056805;28;20293;-84
2022/10/01 08:37:16;;;;;;;25.00;19.75;;;16.20;99.90;;;;;;5053041;28;20216;-85
2022/10/01 08:40:06;;;;;;;21.35;17.48;;;16.60;99.90;;;;;;5059703;28;20220;-84
2022/10/01 08:42:59;;;;;;;20.10;16.38;;;17.30;99.90;;;;;;5059563;28;20224;-83
2022/10/01 08:45:50;;;;;;;22.30;16.13;;;17.20;99.90;;;;;;5055534;28;20666;-86
2022/10/01 08:48:50;;;;;;;21.38;16.85;;;16.80;99.90;;;;;;5055487;28;20347;-84
2022/10/01 08:51:50;;;;;;;22.02;17.70;;;16.30;99.90;;;;;;5068824;28;20224;-85
2022/10/01 08:54:45;;;;;;;21.38;17.90;;;15.80;99.90;;;;;;5054888;28;20220;-83
2022/10/01 08:57:40;;;;;;;23.33;18.45;;;15.90;99.90;;;;;;5057109;28;20238;-85
2022/10/01 09:00:32;;;;;;;24.13;19.42;;;15.80;99.90;;;;;;5053542;28;20232;-85
2022/10/01 09:03:21;;;;;;;24.05;18.77;;;15.80;99.90;;;;;;5068664;28;20225;-85
2022/10/01 09:06:18;;;;;;;25.92;19.85;;;15.80;99.90;;;;;;5051997;28;20220;-83
2022/10/01 09:09:27;;;;;;;24.48;19.90;;;15.80;99.90;;;;;;5057034;28;20224;-87
2022/10/01 09:12:29;;;;;;;24.80;20.42;;;15.70;99.90;;;;;;5062580;28;20223;-88
2022/10/01 09:15:26;;;;;;;26.95;20.20;;;15.60;99.90;;;;;;5051086;28;20238;-84
2022/10/01 09:18:24;;;;;;;24.35;19.58;;;15.30;99.90;;;;;;5063571;28;20232;-83
2022/10/01 09:21:19;;;;;;;24.10;19.73;;;15.10;99.90;;;;;;5059116;28;20603;-85
2022/10/01 09:24:27;;;;;;;27.17;20.65;;;15.00;99.90;;;;;;5071484;28;20225;-87
2022/10/01 09:27:18;;;;;;;26.33;20.33;;;14.90;99.90;;;;;;5063190;28;20217;-90
2022/10/01 09:30:13;;;;;;;26.58;20.98;;;14.90;99.90;;;;;;5061148;28;20223;-85
2022/10/01 09:33:11;;;;;;;26.48;21.23;;;14.80;99.90;;;;;;5073323;28;20256;-87
2022/10/01 09:36:08;;;;;;;31.90;22.20;;;14.80;99.90;;;;;;5058151;28;20216;-84
2022/10/01 09:39:04;;;;;;;26.33;21.58;;;14.90;99.90;;;;;;5063842;28;20238;-85
2022/10/01 09:41:54;;;;;;;23.73;19.45;;;15.00;99.90;;;;;;5061737;28;20289;-80
2022/10/01 09:44:42;;;;;;;24.08;19.20;;;14.90;99.90;;;;;;5054809;28;20220;-77
2022/10/01 09:47:33;;;;;;;21.02;17.67;;;14.80;99.90;;;;;;5053538;28;20331;-81
2022/10/01 09:50:34;;;;;;;21.90;18.23;;;14.80;99.90;;;;;;5064530;28;20273;-81
2022/10/01 09:53:29;;;;;;;17.83;15.15;;;14.80;99.90;;;;;;5067781;28;20769;-79
2022/10/01 09:56:24;;;;;;;17.83;14.93;;;14.70;99.90;;;;;;5067371;28;20232;-81
2022/10/01 09:59:22;;;;;;;22.65;16.73;;;14.60;99.90;;;;;;5055330;28;20220;-83
2022/10/01 10:02:22;;;;;;;22.13;16.58;;;14.40;99.90;;;;;;5054189;28;20236;-83
2022/10/01 10:05:15;;;;;;;22.05;17.58;;;14.60;99.90;;;;;;5048783;28;20950;-84
2022/10/01 10:08:11;;;;;;;19.00;15.85;;;14.60;99.90;;;;;;5068876;28;20330;-84
2022/10/01 10:11:02;;;;;;;20.33;16.25;;;14.70;99.90;;;;;;5059369;28;20217;-83
2022/10/01 10:13:52;;;;;;;22.67;16.85;;;14.60;99.90;;;;;;5060600;28;20221;-83
2022/10/01 10:16:46;;;;;;;22.63;16.63;;;14.50;99.90;;;;;;5061499;28;20239;-84
2022/10/01 10:19:35;;;;;;;20.38;16.98;;;14.50;99.90;;;;;;5058125;28;20641;-83
2022/10/01 10:22:25;;;;;;;21.27;17.52;;;14.60;99.90;;;;;;5057574;28;20303;-84
2022/10/01 10:25:21;;;;;;;30.83;18.20;;;14.70;99.90;;;;;;5064228;28;20215;-83
2022/10/01 10:28:19;;;;;;;23.45;18.23;;;14.80;99.90;;;;;;5058369;28;21425;-85
2022/10/01 10:31:13;;;;;;;23.83;18.35;;;14.70;99.90;;;;;;5071629;28;20364;-83
2022/10/01 10:34:11;;;;;;;23.70;18.98;;;14.70;99.90;;;;;;5069757;28;20232;-83
2022/10/01 10:37:04;;;;;;;22.95;18.73;;;14.70;99.90;;;;;;5060792;28;20232;-83
2022/10/01 10:39:54;;;;;;;24.75;19.90;;;14.60;99.90;;;;;;5057488;28;20739;-83
2022/10/01 10:42:48;;;;;;;23.95;19.10;;;14.70;99.90;;;;;;5057170;28;20322;-84
2022/10/01 10:45:44;;;;;;;25.67;18.50;;;14.70;99.90;;;;;;5065379;28;20231;-83
2022/10/01 10:48:38;;;;;;;23.88;19.13;;;14.60;99.90;;;;;;5057962;28;20216;-85
2022/10/01 10:51:28;;;;;;;24.98;19.95;;;14.70;99.90;;;;;;5059752;28;20305;-81
2022/10/01 10:54:19;;;;;;;24.35;19.20;;;14.50;99.90;;;;;;5059650;28;20215;-82
2022/10/01 10:57:21;;;;;;;25.60;20.05;;;14.40;99.90;;;;;;5037882;28;20322;-84
2022/10/01 11:00:14;;;;;;;22.70;19.25;;;14.40;99.90;;;;;;5045192;28;20641;-83
2022/10/01 11:03:06;;;;;;;28.25;19.85;;;14.40;99.90;;;;;;5051625;28;20224;-83
2022/10/01 11:05:59;;;;;;;24.17;19.00;;;14.70;99.90;;;;;;5061675;28;20710;-83
2022/10/01 11:08:57;;;;;;;29.27;19.92;;;14.70;99.90;;;;;;5054499;28;20234;-83
2022/10/01 11:11:54;;;;;;;23.00;18.75;;;14.80;99.90;;;;;;5034821;28;20228;-83
2022/10/01 11:15:01;;;;;;;25.42;18.50;;;14.90;99.90;;;;;;5052432;28;20342;-83
2022/10/01 11:18:22;;;;;;;21.38;17.08;;;15.00;99.90;;;;;;5040811;28;20235;-85
2022/10/01 11:21:22;;;;;;;22.80;16.27;;;15.10;99.90;;;;;;5053289;28;20603;-83
2022/10/01 11:24:28;;;;;;;20.17;16.40;;;15.20;99.90;;;;;;5058447;28;20212;-83
2022/10/01 11:27:27;;;;;;;20.33;16.75;;;15.30;99.90;;;;;;5055283;28;20220;-82
2022/10/01 11:30:20;;;;;;;21.77;18.15;;;15.40;99.90;;;;;;5064351;28;20698;-83
2022/10/01 11:33:20;;;;;;;20.48;18.27;;;15.60;99.90;;;;;;5064939;28;20330;-83
2022/10/01 11:36:18;;;;;;;21.08;16.77;;;15.60;99.90;;;;;;5058700;28;20223;-83
2022/10/01 11:39:12;;;;;;;20.52;16.42;;;15.70;99.90;;;;;;5059261;28;20219;-83
2022/10/01 11:42:07;;;;;;;20.83;17.20;;;15.80;99.90;;;;;;5060511;28;20224;-83
2022/10/01 11:45:03;;;;;;;19.50;16.38;;;15.60;99.90;;;;;;5064438;28;20223;-83
2022/10/01 11:47:56;;;;;;;18.55;15.38;;;15.50;99.90;;;;;;5066945;28;20291;-80
2022/10/01 11:50:51;;;;;;;21.85;15.60;;;15.40;99.90;;;;;;5040048;28;20564;-84
2022/10/01 11:53:44;;;;;;;16.77;14.10;;;15.60;99.90;;;;;;5039282;28;20224;-84
2022/10/01 11:59:48;;;;;;;15.25;13.65;;;15.30;99.90;;;;;;5027026;28;20377;-81
2022/10/01 12:02:46;;;;;;;17.10;12.40;;;15.60;99.90;;;;;;5041571;28;20221;-80
2022/10/01 12:05:37;;;;;;;13.50;12.07;;;15.80;99.90;;;;;;5024098;28;20228;-81
2022/10/01 12:08:30;;;;;;;14.18;11.80;;;15.80;99.90;;;;;;5026178;28;20311;-86
2022/10/01 12:11:27;;;;;;;15.27;10.90;;;15.80;99.90;;;;;;5040025;28;20223;-84
2022/10/01 12:14:19;;;;;;;15.48;11.85;;;15.60;99.90;;;;;;5036758;28;20224;-83
2022/10/01 12:17:18;;;;;;;14.35;11.30;;;15.40;99.90;;;;;;5042957;28;20220;-81
2022/10/01 12:20:17;;;;;;;14.07;11.68;;;15.50;99.90;;;;;;5040946;28;20227;-78
2022/10/01 12:23:11;;;;;;;13.15;11.77;;;15.60;99.90;;;;;;5038526;28;20212;-79
2022/10/01 12:26:16;;;;;;;12.68;10.65;;;15.60;99.90;;;;;;5041125;28;20228;-77
2022/10/01 12:29:12;;;;;;;13.38;10.85;;;15.50;99.90;;;;;;5038664;28;20220;-79
2022/10/01 12:32:08;;;;;;;14.50;11.13;;;15.70;99.90;;;;;;5042786;28;20358;-79
2022/10/01 12:35:09;;;;;;;13.30;11.05;;;15.50;99.90;;;;;;5038390;28;20241;-80
2022/10/01 12:38:10;;;;;;;13.45;11.90;;;15.40;99.90;;;;;;5029289;28;20260;-79
2022/10/01 12:41:07;;;;;;;16.08;12.05;;;15.40;99.90;;;;;;5025556;28;20785;-83
2022/10/01 12:44:12;;;;;;;19.27;11.50;;;15.50;99.90;;;;;;5042161;28;20228;-83
2022/10/01 12:47:14;;;;;;;11.25;10.07;;;15.50;99.90;;;;;;5018943;28;20252;-78
2022/10/01 12:50:19;;;;;;;12.02;10.45;;;15.60;99.90;;;;;;5050719;28;20228;-80
2022/10/01 12:53:25;;;;;;;10.43;9.32;;;15.60;99.90;;;;;;5073527;28;20220;-78
2022/10/01 12:56:21;;;;;;;10.27;9.00;;;15.30;99.90;;;;;;5060786;28;20220;-79
2022/10/01 12:59:24;;;;;;;11.85;8.95;;;15.30;99.90;;;;;;5061297;28;20232;-80
2022/10/01 13:02:25;;;;;;;10.00;9.00;;;15.20;99.90;;;;;;5072138;28;20227;-82
2022/10/01 13:05:31;;;;;;;9.55;8.57;;;15.20;99.90;;;;;;5060644;28;20600;-85
2022/10/01 13:08:33;;;;;;;10.98;7.57;;;15.30;99.90;;;;;;5063466;28;20235;-87
2022/10/01 13:11:46;;;;;;;7.60;6.80;;;15.20;99.90;;;;;;5067783;28;20223;-86
2022/10/01 13:14:35;;;;;;;6.97;6.28;;;15.20;99.90;;;;;;5063279;28;20260;-85
2022/10/01 13:17:33;;;;;;;6.10;5.50;;;15.20;99.90;;;;;;5062432;28;20232;-79
2022/10/01 13:20:30;;;;;;;10.10;6.63;;;15.30;99.90;;;;;;5056263;28;20232;-84
2022/10/01 13:23:23;;;;;;;7.05;6.30;;;15.40;99.90;;;;;;5060188;28;20236;-86
2022/10/01 13:26:18;;;;;;;6.38;5.70;;;15.40;99.90;;;;;;5061004;28;20216;-87
2022/10/01 13:29:18;;;;;;;7.47;5.97;;;15.40;99.90;;;;;;5059511;28;20231;-86
2022/10/01 13:32:26;;;;;;;10.15;6.07;;;15.50;99.90;;;;;;5057359;28;20216;-87
2022/10/01 13:35:26;;;;;;;7.20;6.05;;;15.40;99.90;;;;;;5059453;28;20220;-85
2022/10/01 13:38:29;;;;;;;10.15;6.07;;;15.40;99.90;;;;;;5053840;28;20752;-82
2022/10/01 13:41:20;;;;;;;8.50;7.47;;;15.30;99.90;;;;;;5059954;28;22163;-82
2022/10/01 13:44:23;;;;;;;7.43;6.68;;;15.40;99.90;;;;;;5060604;28;20231;-89
2022/10/01 13:47:12;;;;;;;8.35;6.45;;;15.40;99.90;;;;;;5082601;28;20208;-86
2022/10/01 13:50:03;;;;;;;8.27;6.32;;;15.40;99.90;;;;;;5061470;28;20863;-86
2022/10/01 13:53:09;;;;;;;7.35;6.65;;;15.40;99.90;;;;;;5072062;28;20316;-87
2022/10/01 13:55:57;;;;;;;7.60;6.40;;;15.40;99.90;;;;;;5059460;28;20230;-85
2022/10/01 13:58:46;;;;;;;9.13;6.70;;;15.40;99.90;;;;;;5062021;28;20216;-91
2022/10/01 14:01:40;;;;;;;8.02;6.93;;;15.40;99.90;;;;;;5062896;28;20232;-91
2022/10/01 14:04:37;;;;;;;7.65;6.60;;;15.30;99.90;;;;;;5064706;28;20227;-91
2022/10/01 14:07:35;;;;;;;10.25;6.93;;;15.40;99.90;;;;;;5056792;28;20239;-84
2022/10/01 14:10:34;;;;;;;8.35;6.82;;;15.30;99.90;;;;;;5053914;28;20355;-82
2022/10/01 14:16:35;;;;;;;8.55;7.63;;;15.20;99.90;;;;;;5057508;28;20427;-89
2022/10/01 14:19:27;;;;;;;8.15;7.35;;;15.20;99.90;;;;;;5055807;28;20280;-83
2022/10/01 14:22:26;;;;;;;10.57;8.38;;;15.20;99.90;;;;;;5062629;28;20335;-91
2022/10/01 14:25:35;;;;;;;9.43;7.90;;;15.10;99.90;;;;;;5065791;28;20235;-89
2022/10/01 14:28:41;;;;;;;11.07;8.20;;;15.10;99.90;;;;;;5055034;28;20595;-88
2022/10/01 14:31:41;;;;;;;10.88;8.75;;;15.20;99.90;;;;;;5060900;28;20234;-84
2022/10/01 14:34:44;;;;;;;9.30;8.38;;;15.00;99.90;;;;;;5046469;28;20224;-85
2022/10/01 14:37:38;;;;;;;12.75;9.38;;;15.00;99.90;;;;;;5061064;28;20313;-87
2022/10/01 14:40:37;;;;;;;13.85;10.20;;;14.90;99.90;;;;;;5055318;28;20228;-85
2022/10/01 14:43:27;;;;;;;11.75;10.55;;;14.90;99.90;;;;;;5066483;28;20235;-86
2022/10/01 14:46:17;;;;;;;11.60;10.40;;;14.80;99.90;;;;;;5057956;28;20211;-85
2022/10/01 14:49:17;;;;;;;14.25;10.77;;;14.80;99.90;;;;;;5059509;28;20228;-82